sensor_id;sensor_type;location;lat;lon;timestamp;pressure;altitude;pressure_sealevel;temperature;humidity
20077;BME280;12348;42.710;23.378;2023-12-20T00:00:19;95524.50;;;-2.42;100.00
20077;BME280;12348;42.710;23.378;2023-12-20T00:02:48;95524.22;;;-2.54;100.00
20077;BME280;12348;42.710;23.378;2023-12-20T00:05:14;95523.72;;;-2.84;100.00
20077;BME280;12348;42.710;23.378;2023-12-20T00:07:41;95520.22;;;-2.92;100.00
20077;BME280;12348;42.710;23.378;2023-12-20T00:10:08;95526.03;;;-2.68;100.00
20077;BME280;12348;42.710;23.378;2023-12-20T00:12:35;95520.94;;;-2.76;100.00
20077;BME280;12348;42.710;23.378;2023-12-20T00:15:01;95522.09;;;-2.85;100.00
20077;BME280;12348;42.710;23.378;2023-12-20T00:17:28;95514.38;;;-2.94;100.00
20077;BME280;12348;42.710;23.378;2023-12-20T00:19:56;95515.94;;;-3.06;100.00
20077;BME280;12348;42.710;23.378;2023-12-20T00:22:23;95521.19;;;-3.06;100.00
20077;BME280;12348;42.710;23.378;2023-12-20T00:24:49;95512.88;;;-3.03;100.00
20077;BME280;12348;42.710;23.378;2023-12-20T00:27:16;95506.00;;;-3.04;100.00
20077;BME280;12348;42.710;23.378;2023-12-20T00:29:43;95497.00;;;-3.23;100.00
20077;BME280;12348;42.710;23.378;2023-12-20T00:32:13;95494.47;;;-3.37;100.00
20077;BME280;12348;42.710;23.378;2023-12-20T00:34:39;95499.31;;;-3.41;100.00
20077;BME280;12348;42.710;23.378;2023-12-20T00:37:07;95485.97;;;-3.39;100.00
20077;BME280;12348;42.710;23.378;2023-12-20T00:39:34;95486.63;;;-3.31;100.00
20077;BME280;12348;42.710;23.378;2023-12-20T00:42:01;95480.56;;;-3.31;100.00
20077;BME280;12348;42.710;23.378;2023-12-20T00:44:27;95485.41;;;-3.35;100.00
20077;BME280;12348;42.710;23.378;2023-12-20T00:46:54;95484.38;;;-3.34;100.00
20077;BME280;12348;42.710;23.378;2023-12-20T00:49:21;95480.72;;;-3.33;100.00
20077;BME280;12348;42.710;23.378;2023-12-20T00:51:47;95480.72;;;-3.33;100.00
20077;BME280;12348;42.710;23.378;2023-12-20T00:54:17;95472.41;;;-3.36;100.00
20077;BME280;12348;42.710;23.378;2023-12-20T00:56:43;95468.19;;;-3.31;100.00
20077;BME280;12348;42.710;23.378;2023-12-20T00:59:10;95475.66;;;-3.34;100.00
20077;BME280;12348;42.710;23.378;2023-12-20T01:01:37;95455.03;;;-3.31;100.00
20077;BME280;12348;42.710;23.378;2023-12-20T01:04:04;95459.75;;;-3.20;100.00
20077;BME280;12348;42.710;23.378;2023-12-20T01:06:30;95453.56;;;-2.92;100.00
20077;BME280;12348;42.710;23.378;2023-12-20T01:08:57;95453.56;;;-2.99;100.00
20077;BME280;12348;42.710;23.378;2023-12-20T01:11:25;95442.63;;;-3.02;100.00
20077;BME280;12348;42.710;23.378;2023-12-20T01:13:52;95452.91;;;-3.07;100.00
20077;BME280;12348;42.710;23.378;2023-12-20T01:16:17;95443.00;;;-3.05;100.00
20077;BME280;12348;42.710;23.378;2023-12-20T01:18:44;95448.88;;;-3.10;100.00
20077;BME280;12348;42.710;23.378;2023-12-20T01:21:11;95448.84;;;-3.17;100.00
20077;BME280;12348;42.710;23.378;2023-12-20T01:23:38;95439.88;;;-3.22;100.00
20077;BME280;12348;42.710;23.378;2023-12-20T01:26:05;95444.72;;;-3.26;100.00
20077;BME280;12348;42.710;23.378;2023-12-20T01:28:33;95443.69;;;-3.31;100.00
20077;BME280;12348;42.710;23.378;2023-12-20T01:30:59;95430.72;;;-3.33;100.00
20077;BME280;12348;42.710;23.378;2023-12-20T01:33:26;95429.09;;;-3.34;100.00
20077;BME280;12348;42.710;23.378;2023-12-20T01:35:53;95425.88;;;-3.36;100.00
20077;BME280;12348;42.710;23.378;2023-12-20T01:38:19;95427.28;;;-3.33;100.00
20077;BME280;12348;42.710;23.378;2023-12-20T01:40:46;95420.19;;;-3.33;100.00
20077;BME280;12348;42.710;23.378;2023-12-20T01:43:13;95410.88;;;-3.35;100.00
20077;BME280;12348;42.710;23.378;2023-12-20T01:45:41;95405.56;;;-3.42;100.00
20077;BME280;12348;42.710;23.378;2023-12-20T01:48:08;95401.09;;;-3.48;100.00
20077;BME280;12348;42.710;23.378;2023-12-20T01:50:36;95402.31;;;-3.51;100.00
20077;BME280;12348;42.710;23.378;2023-12-20T01:53:04;95400.78;;;-3.73;100.00
20077;BME280;12348;42.710;23.378;2023-12-20T01:55:33;95392.03;;;-3.80;100.00
20077;BME280;12348;42.710;23.378;2023-12-20T01:58:01;95393.50;;;-3.71;100.00
20077;BME280;12348;42.710;23.378;2023-12-20T02:00:29;95393.69;;;-3.73;100.00
20077;BME280;12348;42.710;23.378;2023-12-20T02:03:01;95395.94;;;-3.70;100.00
20077;BME280;12348;42.710;23.378;2023-12-20T02:05:29;95389.66;;;-3.69;100.00
20077;BME280;12348;42.710;23.378;2023-12-20T02:07:55;95396.53;;;-3.68;100.00
20077;BME280;12348;42.710;23.378;2023-12-20T02:10:23;95382.00;;;-3.63;100.00
20077;BME280;12348;42.710;23.378;2023-12-20T02:12:50;95384.81;;;-3.65;100.00
20077;BME280;12348;42.710;23.378;2023-12-20T02:15:17;95377.97;;;-3.59;100.00
20077;BME280;12348;42.710;23.378;2023-12-20T02:17:44;95385.59;;;-3.71;100.00
20077;BME280;12348;42.710;23.378;2023-12-20T02:20:13;95375.50;;;-3.68;100.00
20077;BME280;12348;42.710;23.378;2023-12-20T02:22:41;95378.97;;;-3.60;100.00
20077;BME280;12348;42.710;23.378;2023-12-20T02:25:08;95365.03;;;-3.54;100.00
20077;BME280;12348;42.710;23.378;2023-12-20T02:27:35;95358.13;;;-3.62;100.00
20077;BME280;12348;42.710;23.378;2023-12-20T02:30:02;95358.56;;;-3.58;100.00
20077;BME280;12348;42.710;23.378;2023-12-20T02:32:28;95365.19;;;-3.62;100.00
20077;BME280;12348;42.710;23.378;2023-12-20T02:34:55;95359.59;;;-3.46;100.00
20077;BME280;12348;42.710;23.378;2023-12-20T02:37:23;95358.63;;;-3.38;100.00
20077;BME280;12348;42.710;23.378;2023-12-20T02:39:51;95359.63;;;-3.39;100.00
20077;BME280;12348;42.710;23.378;2023-12-20T02:42:18;95350.91;;;-3.47;100.00
20077;BME280;12348;42.710;23.378;2023-12-20T02:44:44;95347.84;;;-3.50;100.00
20077;BME280;12348;42.710;23.378;2023-12-20T02:47:11;95340.78;;;-3.50;100.00
20077;BME280;12348;42.710;23.378;2023-12-20T02:49:37;95352.09;;;-3.49;100.00
20077;BME280;12348;42.710;23.378;2023-12-20T02:52:05;95350.50;;;-3.44;100.00
20077;BME280;12348;42.710;23.378;2023-12-20T02:54:32;95344.66;;;-3.32;100.00
20077;BME280;12348;42.710;23.378;2023-12-20T02:57:00;95351.59;;;-3.25;100.00
20077;BME280;12348;42.710;23.378;2023-12-20T02:59:27;95345.72;;;-3.20;100.00
20077;BME280;12348;42.710;23.378;2023-12-20T03:01:54;95349.75;;;-3.31;100.00
20077;BME280;12348;42.710;23.378;2023-12-20T03:04:20;95345.28;;;-3.30;100.00
20077;BME280;12348;42.710;23.378;2023-12-20T03:06:47;95347.28;;;-3.39;100.00
20077;BME280;12348;42.710;23.378;2023-12-20T03:09:14;95343.28;;;-3.15;100.00
20077;BME280;12348;42.710;23.378;2023-12-20T03:11:40;95342.53;;;-3.02;100.00
20077;BME280;12348;42.710;23.378;2023-12-20T03:14:09;95342.13;;;-2.93;100.00
20077;BME280;12348;42.710;23.378;2023-12-20T03:16:36;95337.91;;;-2.87;100.00
20077;BME280;12348;42.710;23.378;2023-12-20T03:19:03;95342.16;;;-2.79;100.00
20077;BME280;12348;42.710;23.378;2023-12-20T03:21:30;95346.19;;;-2.77;100.00
20077;BME280;12348;42.710;23.378;2023-12-20T03:23:56;95334.88;;;-2.71;100.00
20077;BME280;12348;42.710;23.378;2023-12-20T03:26:23;95330.63;;;-2.72;100.00
20077;BME280;12348;42.710;23.378;2023-12-20T03:28:50;95325.53;;;-2.80;100.00
20077;BME280;12348;42.710;23.378;2023-12-20T03:31:18;95331.81;;;-2.81;100.00
20077;BME280;12348;42.710;23.378;2023-12-20T03:33:46;95327.13;;;-2.92;100.00
20077;BME280;12348;42.710;23.378;2023-12-20T03:36:13;95325.91;;;-2.96;100.00
20077;BME280;12348;42.710;23.378;2023-12-20T03:38:39;95329.38;;;-3.02;100.00
20077;BME280;12348;42.710;23.378;2023-12-20T03:41:07;95324.31;;;-2.97;100.00
20077;BME280;12348;42.710;23.378;2023-12-20T03:43:33;95321.03;;;-2.99;100.00
20077;BME280;12348;42.710;23.378;2023-12-20T03:46:00;95321.44;;;-2.96;100.00
20077;BME280;12348;42.710;23.378;2023-12-20T03:48:30;95320.25;;;-2.93;100.00
20077;BME280;12348;42.710;23.378;2023-12-20T03:50:57;95312.56;;;-2.95;100.00
20077;BME280;12348;42.710;23.378;2023-12-20T03:53:24;95316.59;;;-2.92;100.00
20077;BME280;12348;42.710;23.378;2023-12-20T03:55:51;95315.19;;;-2.88;100.00
20077;BME280;12348;42.710;23.378;2023-12-20T03:58:17;95315.41;;;-2.89;100.00
20077;BME280;12348;42.710;23.378;2023-12-20T04:00:46;95315.41;;;-2.89;100.00
20077;BME280;12348;42.710;23.378;2023-12-20T04:03:12;95317.63;;;-2.93;100.00
20077;BME280;12348;42.710;23.378;2023-12-20T04:05:41;95309.72;;;-2.86;100.00
20077;BME280;12348;42.710;23.378;2023-12-20T04:08:09;95301.81;;;-2.93;100.00
20077;BME280;12348;42.710;23.378;2023-12-20T04:10:36;95296.13;;;-3.03;100.00
20077;BME280;12348;42.710;23.378;2023-12-20T04:13:03;95298.16;;;-3.05;100.00
20077;BME280;12348;42.710;23.378;2023-12-20T04:15:30;95297.09;;;-3.18;100.00
20077;BME280;12348;42.710;23.378;2023-12-20T04:17:56;95293.09;;;-3.13;100.00
20077;BME280;12348;42.710;23.378;2023-12-20T04:20:23;95299.34;;;-3.21;100.00
20077;BME280;12348;42.710;23.378;2023-12-20T04:22:51;95297.91;;;-3.30;100.00
20077;BME280;12348;42.710;23.378;2023-12-20T04:25:18;95293.00;;;-3.40;100.00
20077;BME280;12348;42.710;23.378;2023-12-20T04:27:45;95292.63;;;-3.30;100.00
20077;BME280;12348;42.710;23.378;2023-12-20T04:30:12;95289.97;;;-3.37;100.00
20077;BME280;12348;42.710;23.378;2023-12-20T04:32:39;95281.88;;;-3.42;100.00
20077;BME280;12348;42.710;23.378;2023-12-20T04:35:05;95277.59;;;-3.50;100.00
20077;BME280;12348;42.710;23.378;2023-12-20T04:37:33;95281.84;;;-3.62;100.00
20077;BME280;12348;42.710;23.378;2023-12-20T04:40:02;95268.63;;;-3.75;100.00
20077;BME280;12348;42.710;23.378;2023-12-20T04:42:30;95275.06;;;-3.78;100.00
20077;BME280;12348;42.710;23.378;2023-12-20T04:44:57;95281.16;;;-3.71;100.00
20077;BME280;12348;42.710;23.378;2023-12-20T04:47:24;95273.09;;;-3.62;100.00
20077;BME280;12348;42.710;23.378;2023-12-20T04:49:50;95274.72;;;-3.68;100.00
20077;BME280;12348;42.710;23.378;2023-12-20T04:52:17;95284.59;;;-3.70;100.00
20077;BME280;12348;42.710;23.378;2023-12-20T04:54:44;95271.31;;;-3.62;100.00
20077;BME280;12348;42.710;23.378;2023-12-20T04:57:11;95272.09;;;-3.55;100.00
20077;BME280;12348;42.710;23.378;2023-12-20T04:59:38;95267.47;;;-3.53;100.00
20077;BME280;12348;42.710;23.378;2023-12-20T05:02:05;95270.72;;;-3.51;100.00
20077;BME280;12348;42.710;23.378;2023-12-20T05:04:32;95269.91;;;-3.45;100.00
20077;BME280;12348;42.710;23.378;2023-12-20T05:06:58;95266.50;;;-3.38;100.00
20077;BME280;12348;42.710;23.378;2023-12-20T05:09:25;95256.38;;;-3.35;100.00
20077;BME280;12348;42.710;23.378;2023-12-20T05:11:52;95259.84;;;-3.28;100.00
20077;BME280;12348;42.710;23.378;2023-12-20T05:14:20;95257.78;;;-3.32;100.00
20077;BME280;12348;42.710;23.378;2023-12-20T05:16:46;95261.25;;;-3.25;100.00
20077;BME280;12348;42.710;23.378;2023-12-20T05:19:13;95253.75;;;-3.22;100.00
20077;BME280;12348;42.710;23.378;2023-12-20T05:21:39;95258.63;;;-3.19;100.00
20077;BME280;12348;42.710;23.378;2023-12-20T05:24:07;95252.59;;;-3.06;100.00
20077;BME280;12348;42.710;23.378;2023-12-20T05:26:33;95246.88;;;-3.03;100.00
20077;BME280;12348;42.710;23.378;2023-12-20T05:29:00;95247.91;;;-3.24;100.00
20077;BME280;12348;42.710;23.378;2023-12-20T05:31:28;95254.59;;;-3.21;100.00
20077;BME280;12348;42.710;23.378;2023-12-20T05:33:55;95248.09;;;-3.19;100.00
20077;BME280;12348;42.710;23.378;2023-12-20T05:36:22;95241.84;;;-3.04;100.00
20077;BME280;12348;42.710;23.378;2023-12-20T05:38:49;95230.28;;;-2.97;100.00
20077;BME280;12348;42.710;23.378;2023-12-20T05:41:16;95239.63;;;-2.94;100.00
20077;BME280;12348;42.710;23.378;2023-12-20T05:43:42;95234.75;;;-2.97;100.00
20077;BME280;12348;42.710;23.378;2023-12-20T05:46:10;95234.34;;;-2.94;100.00
20077;BME280;12348;42.710;23.378;2023-12-20T05:48:38;95230.28;;;-2.90;100.00
20077;BME280;12348;42.710;23.378;2023-12-20T05:51:06;95229.91;;;-2.87;100.00
20077;BME280;12348;42.710;23.378;2023-12-20T05:53:33;95227.84;;;-2.92;100.00
20077;BME280;12348;42.710;23.378;2023-12-20T05:56:00;95224.19;;;-2.77;100.00
20077;BME280;12348;42.710;23.378;2023-12-20T05:58:26;95227.84;;;-2.72;100.00
20077;BME280;12348;42.710;23.378;2023-12-20T06:00:54;95226.03;;;-2.64;100.00
20077;BME280;12348;42.710;23.378;2023-12-20T06:03:21;95221.13;;;-2.54;100.00
20077;BME280;12348;42.710;23.378;2023-12-20T06:05:50;95218.47;;;-2.48;100.00
20077;BME280;12348;42.710;23.378;2023-12-20T06:08:18;95204.25;;;-2.40;100.00
20077;BME280;12348;42.710;23.378;2023-12-20T06:10:45;95206.66;;;-2.32;100.00
20077;BME280;12348;42.710;23.378;2023-12-20T06:13:11;95211.94;;;-2.32;100.00
20077;BME280;12348;42.710;23.378;2023-12-20T06:15:39;95211.53;;;-2.29;100.00
20077;BME280;12348;42.710;23.378;2023-12-20T06:18:06;95214.38;;;-2.24;100.00
20077;BME280;12348;42.710;23.378;2023-12-20T06:20:33;95213.75;;;-2.26;100.00
20077;BME280;12348;42.710;23.378;2023-12-20T06:23:01;95212.13;;;-2.20;100.00
20077;BME280;12348;42.710;23.378;2023-12-20T06:25:28;95221.84;;;-2.14;100.00
20077;BME280;12348;42.710;23.378;2023-12-20T06:27:54;95216.38;;;-2.19;100.00
20077;BME280;12348;42.710;23.378;2023-12-20T06:30:21;95214.41;;;-2.37;100.00
20077;BME280;12348;42.710;23.378;2023-12-20T06:32:50;95211.50;;;-2.15;100.00
20077;BME280;12348;42.710;23.378;2023-12-20T06:35:16;95213.28;;;-2.03;100.00
20077;BME280;12348;42.710;23.378;2023-12-20T06:37:43;95220.00;;;-2.07;100.00
20077;BME280;12348;42.710;23.378;2023-12-20T06:40:11;95215.94;;;-2.09;100.00
20077;BME280;12348;42.710;23.378;2023-12-20T06:42:38;95215.75;;;-2.08;100.00
20077;BME280;12348;42.710;23.378;2023-12-20T06:45:05;95215.16;;;-2.16;100.00
20077;BME280;12348;42.710;23.378;2023-12-20T06:47:32;95205.81;;;-2.12;100.00
20077;BME280;12348;42.710;23.378;2023-12-20T06:49:59;95200.94;;;-2.09;100.00
20077;BME280;12348;42.710;23.378;2023-12-20T06:52:26;95208.63;;;-2.07;100.00
20077;BME280;12348;42.710;23.378;2023-12-20T06:54:53;95199.69;;;-2.06;100.00
20077;BME280;12348;42.710;23.378;2023-12-20T06:57:21;95192.97;;;-2.02;100.00
20077;BME280;12348;42.710;23.378;2023-12-20T06:59:48;95189.50;;;-1.96;100.00
20077;BME280;12348;42.710;23.378;2023-12-20T07:02:16;95195.56;;;-1.89;100.00
20077;BME280;12348;42.710;23.378;2023-12-20T07:04:42;95194.63;;;-2.01;100.00
20077;BME280;12348;42.710;23.378;2023-12-20T07:07:09;95192.16;;;-1.96;100.00
20077;BME280;12348;42.710;23.378;2023-12-20T07:09:36;95181.72;;;-1.78;100.00
20077;BME280;12348;42.710;23.378;2023-12-20T07:12:04;95182.91;;;-1.74;100.00
20077;BME280;12348;42.710;23.378;2023-12-20T07:14:33;95192.78;;;-2.01;100.00
20077;BME280;12348;42.710;23.378;2023-12-20T07:16:59;95177.88;;;-1.82;100.00
20077;BME280;12348;42.710;23.378;2023-12-20T07:19:26;95178.44;;;-1.73;100.00
20077;BME280;12348;42.710;23.378;2023-12-20T07:21:53;95172.47;;;-1.62;100.00
20077;BME280;12348;42.710;23.378;2023-12-20T07:24:19;95173.09;;;-1.60;100.00
20077;BME280;12348;42.710;23.378;2023-12-20T07:26:46;95176.28;;;-1.51;100.00
20077;BME280;12348;42.710;23.378;2023-12-20T07:29:13;95176.63;;;-1.41;100.00
20077;BME280;12348;42.710;23.378;2023-12-20T07:31:41;95172.25;;;-1.29;100.00
20077;BME280;12348;42.710;23.378;2023-12-20T07:34:09;95164.88;;;-1.20;100.00
20077;BME280;12348;42.710;23.378;2023-12-20T07:36:35;95160.78;;;-1.16;100.00
20077;BME280;12348;42.710;23.378;2023-12-20T07:39:02;95162.19;;;-1.13;100.00
20077;BME280;12348;42.710;23.378;2023-12-20T07:41:29;95164.22;;;-0.90;100.00
20077;BME280;12348;42.710;23.378;2023-12-20T07:43:56;95168.38;;;-0.76;100.00
20077;BME280;12348;42.710;23.378;2023-12-20T07:46:23;95164.31;;;-0.79;100.00
20077;BME280;12348;42.710;23.378;2023-12-20T07:48:51;95163.59;;;-0.86;100.00
20077;BME280;12348;42.710;23.378;2023-12-20T07:51:17;95164.53;;;-0.80;100.00
20077;BME280;12348;42.710;23.378;2023-12-20T07:53:46;95168.56;;;-0.96;100.00
20077;BME280;12348;42.710;23.378;2023-12-20T07:56:14;95160.44;;;-1.19;100.00
20077;BME280;12348;42.710;23.378;2023-12-20T07:58:41;95152.00;;;-1.10;100.00
20077;BME280;12348;42.710;23.378;2023-12-20T08:01:08;95153.28;;;-0.94;100.00
20077;BME280;12348;42.710;23.378;2023-12-20T08:03:35;95155.91;;;-0.94;100.00
20077;BME280;12348;42.710;23.378;2023-12-20T08:06:03;95161.94;;;-0.87;100.00
20077;BME280;12348;42.710;23.378;2023-12-20T08:08:30;95157.13;;;-0.71;100.00
20077;BME280;12348;42.710;23.378;2023-12-20T08:10:57;95162.06;;;-0.57;100.00
20077;BME280;12348;42.710;23.378;2023-12-20T08:13:25;95156.28;;;-0.47;100.00
20077;BME280;12348;42.710;23.378;2023-12-20T08:15:52;95151.22;;;-0.48;100.00
20077;BME280;12348;42.710;23.378;2023-12-20T08:18:19;95139.38;;;-0.46;100.00
20077;BME280;12348;42.710;23.378;2023-12-20T08:20:46;95136.97;;;-0.29;100.00
20077;BME280;12348;42.710;23.378;2023-12-20T08:23:15;95134.94;;;-0.15;100.00
20077;BME280;12348;42.710;23.378;2023-12-20T08:25:42;95135.13;;;-0.10;100.00
20077;BME280;12348;42.710;23.378;2023-12-20T08:28:11;95139.13;;;-0.08;100.00
20077;BME280;12348;42.710;23.378;2023-12-20T08:30:38;95138.31;;;-0.08;100.00
20077;BME280;12348;42.710;23.378;2023-12-20T08:33:06;95139.06;;;-0.19;100.00
20077;BME280;12348;42.710;23.378;2023-12-20T08:35:36;95126.94;;;-0.09;100.00
20077;BME280;12348;42.710;23.378;2023-12-20T08:38:03;95127.19;;;-0.10;100.00
20077;BME280;12348;42.710;23.378;2023-12-20T08:40:31;95124.81;;;0.00;100.00
20077;BME280;12348;42.710;23.378;2023-12-20T08:42:58;95117.28;;;0.15;100.00
20077;BME280;12348;42.710;23.378;2023-12-20T08:45:25;95118.25;;;0.03;100.00
20077;BME280;12348;42.710;23.378;2023-12-20T08:47:51;95110.16;;;-0.33;100.00
20077;BME280;12348;42.710;23.378;2023-12-20T08:50:18;95114.38;;;-0.13;100.00
20077;BME280;12348;42.710;23.378;2023-12-20T08:52:45;95104.72;;;-0.08;100.00
20077;BME280;12348;42.710;23.378;2023-12-20T08:55:12;95102.00;;;-0.01;100.00
20077;BME280;12348;42.710;23.378;2023-12-20T08:57:41;95105.16;;;0.08;100.00
20077;BME280;12348;42.710;23.378;2023-12-20T09:00:09;95099.63;;;0.09;100.00
20077;BME280;12348;42.710;23.378;2023-12-20T09:02:36;95090.81;;;0.15;100.00
20077;BME280;12348;42.710;23.378;2023-12-20T09:05:03;95079.19;;;0.16;100.00
20077;BME280;12348;42.710;23.378;2023-12-20T09:07:30;95075.63;;;0.22;100.00
20077;BME280;12348;42.710;23.378;2023-12-20T09:09:57;95072.72;;;0.12;100.00
20077;BME280;12348;42.710;23.378;2023-12-20T09:12:24;95060.34;;;-0.06;100.00
20077;BME280;12348;42.710;23.378;2023-12-20T09:14:53;95061.19;;;-0.23;100.00
20077;BME280;12348;42.710;23.378;2023-12-20T09:17:20;95041.50;;;0.03;100.00
20077;BME280;12348;42.710;23.378;2023-12-20T09:19:48;95043.09;;;0.04;100.00
20077;BME280;12348;42.710;23.378;2023-12-20T09:22:15;95037.47;;;0.00;100.00
20077;BME280;12348;42.710;23.378;2023-12-20T09:24:42;95025.41;;;0.04;100.00
20077;BME280;12348;42.710;23.378;2023-12-20T09:27:10;95022.34;;;0.19;100.00
20077;BME280;12348;42.710;23.378;2023-12-20T09:29:38;95015.56;;;0.35;100.00
20077;BME280;12348;42.710;23.378;2023-12-20T09:32:06;95010.03;;;0.36;100.00
20077;BME280;12348;42.710;23.378;2023-12-20T09:34:33;95008.41;;;0.35;100.00
20077;BME280;12348;42.710;23.378;2023-12-20T09:37:00;94995.16;;;0.12;100.00
20077;BME280;12348;42.710;23.378;2023-12-20T09:39:28;94992.63;;;0.17;100.00
20077;BME280;12348;42.710;23.378;2023-12-20T09:42:00;94990.91;;;0.22;100.00
20077;BME280;12348;42.710;23.378;2023-12-20T09:44:28;94988.84;;;0.24;100.00
20077;BME280;12348;42.710;23.378;2023-12-20T09:46:55;94979.84;;;0.26;100.00
20077;BME280;12348;42.710;23.378;2023-12-20T09:49:25;94965.59;;;0.38;100.00
20077;BME280;12348;42.710;23.378;2023-12-20T09:51:54;94969.50;;;0.36;100.00
20077;BME280;12348;42.710;23.378;2023-12-20T09:54:21;94978.03;;;0.38;100.00
20077;BME280;12348;42.710;23.378;2023-12-20T09:56:48;94962.69;;;0.63;100.00
20077;BME280;12348;42.710;23.378;2023-12-20T09:59:15;94957.75;;;0.55;100.00
20077;BME280;12348;42.710;23.378;2023-12-20T10:01:43;94959.03;;;0.76;100.00
20077;BME280;12348;42.710;23.378;2023-12-20T10:04:11;94964.19;;;0.83;100.00
20077;BME280;12348;42.710;23.378;2023-12-20T10:06:40;94959.50;;;0.61;100.00
20077;BME280;12348;42.710;23.378;2023-12-20T10:09:08;94950.81;;;0.78;100.00
20077;BME280;12348;42.710;23.378;2023-12-20T10:11:35;94947.31;;;1.12;100.00
20077;BME280;12348;42.710;23.378;2023-12-20T10:14:03;94941.34;;;1.62;100.00
20077;BME280;12348;42.710;23.378;2023-12-20T10:16:30;94928.22;;;1.84;100.00
20077;BME280;12348;42.710;23.378;2023-12-20T10:18:58;94911.63;;;2.28;100.00
20077;BME280;12348;42.710;23.378;2023-12-20T10:21:25;94913.47;;;2.27;100.00
20077;BME280;12348;42.710;23.378;2023-12-20T10:23:54;94921.88;;;2.02;100.00
20077;BME280;12348;42.710;23.378;2023-12-20T10:26:21;94915.09;;;1.78;100.00
20077;BME280;12348;42.710;23.378;2023-12-20T10:28:50;94910.56;;;1.78;100.00
20077;BME280;12348;42.710;23.378;2023-12-20T10:31:28;94904.38;;;2.23;100.00
20077;BME280;12348;42.710;23.378;2023-12-20T10:33:56;94905.13;;;2.57;100.00
20077;BME280;12348;42.710;23.378;2023-12-20T10:36:25;94892.50;;;2.86;100.00
20077;BME280;12348;42.710;23.378;2023-12-20T10:38:54;94887.88;;;2.38;100.00
20077;BME280;12348;42.710;23.378;2023-12-20T10:41:25;94889.25;;;2.24;100.00
20077;BME280;12348;42.710;23.378;2023-12-20T10:43:55;94890.88;;;2.08;100.00
20077;BME280;12348;42.710;23.378;2023-12-20T10:46:22;94893.28;;;1.92;100.00
20077;BME280;12348;42.710;23.378;2023-12-20T10:48:51;94879.13;;;2.21;100.00
20077;BME280;12348;42.710;23.378;2023-12-20T10:51:20;94874.69;;;2.43;100.00
20077;BME280;12348;42.710;23.378;2023-12-20T10:53:49;94864.56;;;2.62;100.00
20077;BME280;12348;42.710;23.378;2023-12-20T10:56:19;94868.44;;;2.98;100.00
20077;BME280;12348;42.710;23.378;2023-12-20T10:58:47;94864.78;;;2.60;100.00
20077;BME280;12348;42.710;23.378;2023-12-20T11:01:15;94856.34;;;2.63;100.00
20077;BME280;12348;42.710;23.378;2023-12-20T11:03:44;94861.22;;;2.94;100.00
20077;BME280;12348;42.710;23.378;2023-12-20T11:06:23;94853.94;;;3.33;100.00
20077;BME280;12348;42.710;23.378;2023-12-20T11:08:55;94849.44;;;2.84;100.00
20077;BME280;12348;42.710;23.378;2023-12-20T11:11:38;94834.41;;;2.73;100.00
20077;BME280;12348;42.710;23.378;2023-12-20T11:14:15;94838.47;;;3.03;100.00
20077;BME280;12348;42.710;23.378;2023-12-20T11:16:45;94832.44;;;3.12;100.00
20077;BME280;12348;42.710;23.378;2023-12-20T11:19:12;94825.22;;;3.35;100.00
20077;BME280;12348;42.710;23.378;2023-12-20T11:21:39;94830.25;;;3.31;100.00
20077;BME280;12348;42.710;23.378;2023-12-20T11:24:06;94815.72;;;3.17;100.00
20077;BME280;12348;42.710;23.378;2023-12-20T11:26:37;94815.84;;;2.56;100.00
20077;BME280;12348;42.710;23.378;2023-12-20T11:29:31;94805.84;;;2.63;100.00
20077;BME280;12348;42.710;23.378;2023-12-20T11:32:00;94791.59;;;2.97;100.00
20077;BME280;12348;42.710;23.378;2023-12-20T11:34:27;94792.38;;;3.24;100.00
20077;BME280;12348;42.710;23.378;2023-12-20T11:36:58;94774.91;;;4.03;100.00
20077;BME280;12348;42.710;23.378;2023-12-20T11:39:26;94769.25;;;4.42;100.00
20077;BME280;12348;42.710;23.378;2023-12-20T11:41:56;94766.34;;;4.43;100.00
20077;BME280;12348;42.710;23.378;2023-12-20T11:44:25;94760.06;;;4.12;100.00
20077;BME280;12348;42.710;23.378;2023-12-20T11:46:52;94761.81;;;3.27;100.00
20077;BME280;12348;42.710;23.378;2023-12-20T11:49:23;94760.97;;;2.94;100.00
20077;BME280;12348;42.710;23.378;2023-12-20T11:51:50;94747.53;;;3.33;100.00
20077;BME280;12348;42.710;23.378;2023-12-20T11:54:16;94748.25;;;2.96;100.00
20077;BME280;12348;42.710;23.378;2023-12-20T11:56:43;94739.78;;;2.28;100.00
20077;BME280;12348;42.710;23.378;2023-12-20T11:59:12;94742.53;;;2.16;100.00
20077;BME280;12348;42.710;23.378;2023-12-20T12:01:38;94728.88;;;1.86;100.00
20077;BME280;12348;42.710;23.378;2023-12-20T12:04:05;94727.16;;;1.41;100.00
20077;BME280;12348;42.710;23.378;2023-12-20T12:06:32;94707.41;;;0.98;100.00
20077;BME280;12348;42.710;23.378;2023-12-20T12:08:59;94715.66;;;0.68;100.00
20077;BME280;12348;42.710;23.378;2023-12-20T12:11:26;94707.22;;;0.42;100.00
20077;BME280;12348;42.710;23.378;2023-12-20T12:13:53;94702.72;;;0.43;100.00
20077;BME280;12348;42.710;23.378;2023-12-20T12:16:21;94705.50;;;0.36;100.00
20077;BME280;12348;42.710;23.378;2023-12-20T12:18:55;94691.38;;;0.31;100.00
20077;BME280;12348;42.710;23.378;2023-12-20T12:21:22;94694.00;;;0.59;100.00
20077;BME280;12348;42.710;23.378;2023-12-20T12:23:48;94695.00;;;0.70;100.00
20077;BME280;12348;42.710;23.378;2023-12-20T12:26:15;94700.16;;;0.77;100.00
20077;BME280;12348;42.710;23.378;2023-12-20T12:28:42;94675.31;;;0.66;100.00
20077;BME280;12348;42.710;23.378;2023-12-20T12:31:13;94682.31;;;0.72;100.00
20077;BME280;12348;42.710;23.378;2023-12-20T12:33:42;94683.31;;;0.83;100.00
20077;BME280;12348;42.710;23.378;2023-12-20T12:36:09;94683.16;;;1.06;100.00
20077;BME280;12348;42.710;23.378;2023-12-20T12:38:36;94689.00;;;1.42;100.00
20077;BME280;12348;42.710;23.378;2023-12-20T12:41:04;94685.22;;;1.38;100.00
20077;BME280;12348;42.710;23.378;2023-12-20T12:43:31;94682.66;;;1.26;100.00